地図

経路データ

SID SEASON NUMBER BASIN SUBBASIN NAME ISO_TIME NATURE LAT LON WMO_WIND WMO_PRES WMO_AGENCY TRACK_TYPE DIST2LAND LANDFALL IFLAG USA_AGENCY USA_ATCF_ID USA_LAT USA_LON USA_RECORD USA_STATUS USA_WIND USA_PRES USA_SSHS USA_R34_NE USA_R34_SE USA_R34_SW USA_R34_NW USA_R50_NE USA_R50_SE USA_R50_SW USA_R50_NW USA_R64_NE USA_R64_SE USA_R64_SW USA_R64_NW USA_POCI USA_ROCI USA_RMW USA_EYE TOKYO_LAT TOKYO_LON TOKYO_GRADE TOKYO_WIND TOKYO_PRES TOKYO_R50_DIR TOKYO_R50_LONG TOKYO_R50_SHORT TOKYO_R30_DIR TOKYO_R30_LONG TOKYO_R30_SHORT TOKYO_LAND CMA_LAT CMA_LON CMA_CAT CMA_WIND CMA_PRES HKO_LAT HKO_LON HKO_CAT HKO_WIND HKO_PRES NEWDELHI_LAT NEWDELHI_LON NEWDELHI_GRADE NEWDELHI_WIND NEWDELHI_PRES NEWDELHI_CI NEWDELHI_DP NEWDELHI_POCI REUNION_LAT REUNION_LON REUNION_TYPE REUNION_WIND REUNION_PRES REUNION_TNUM REUNION_CI REUNION_RMW REUNION_R34_NE REUNION_R34_SE REUNION_R34_SW REUNION_R34_NW REUNION_R50_NE REUNION_R50_SE REUNION_R50_SW REUNION_R50_NW REUNION_R64_NE REUNION_R64_SE REUNION_R64_SW REUNION_R64_NW BOM_LAT BOM_LON BOM_TYPE BOM_WIND BOM_PRES BOM_TNUM BOM_CI BOM_RMW BOM_R34_NE BOM_R34_SE BOM_R34_SW BOM_R34_NW BOM_R50_NE BOM_R50_SE BOM_R50_SW BOM_R50_NW BOM_R64_NE BOM_R64_SE BOM_R64_SW BOM_R64_NW BOM_ROCI BOM_POCI BOM_EYE BOM_POS_METHOD BOM_PRES_METHOD NADI_LAT NADI_LON NADI_CAT NADI_WIND NADI_PRES WELLINGTON_LAT WELLINGTON_LON WELLINGTON_WIND WELLINGTON_PRES DS824_LAT DS824_LON DS824_STAGE DS824_WIND DS824_PRES TD9636_LAT TD9636_LON TD9636_STAGE TD9636_WIND TD9636_PRES TD9635_LAT TD9635_LON TD9635_WIND TD9635_PRES TD9635_ROCI NEUMANN_LAT NEUMANN_LON NEUMANN_CLASS NEUMANN_WIND NEUMANN_PRES MLC_LAT MLC_LON MLC_CLASS MLC_WIND MLC_PRES USA_GUST BOM_GUST BOM_GUST_PER REUNION_GUST REUNION_GUST_PER USA_SEAHGT USA_SEARAD_NE USA_SEARAD_SE USA_SEARAD_SW USA_SEARAD_NW STORM_SPEED STORM_DIR
1997297S11177 1998 100 SP MM NOT_NAMED 1997-10-24 06:00:00 TS -10.5000 177.000 main 703 703 O___________O_ jtwc_sh SH031998 -10.5000 177.000 20 -1 -10.5000 177.000 TC 20 4 257
1997297S11177 1998 100 SP MM NOT_NAMED 1997-10-24 09:00:00 TS -10.5475 176.788 main 712 701 P___________P_ SH031998 -10.5475 176.788 20 -1 -10.5475 176.788 TC 20 4 256
1997297S11177 1998 100 SP MM NOT_NAMED 1997-10-24 12:00:00 TS -10.6000 176.600 main 709 703 O___________O_ jtwc_sh SH031998 -10.6000 176.600 20 -1 -10.6000 176.600 TC 20 4 252
1997297S11177 1998 100 SP MM NOT_NAMED 1997-10-24 15:00:00 TS -10.6575 176.450 main 703 703 P___________P_ SH031998 -10.6575 176.450 20 -1 -10.6575 176.450 TC 20 3 251
1997297S11177 1998 100 SP MM NOT_NAMED 1997-10-24 18:00:00 TS -10.7000 176.300 main 711 711 O___________O_ jtwc_sh SH031998 -10.7000 176.300 20 -1 -10.7000 176.300 TC 20 3 262
1997297S11177 1998 100 SP MM NOT_NAMED 1997-10-24 21:00:00 TS -10.7075 176.107 main 720 720 P___________P_ SH031998 -10.7075 176.107 22 -1 -10.7075 176.107 TC 22 4 270
1997297S11177 1998 100 SP MM NOT_NAMED 1997-10-25 00:00:00 TS -10.7000 175.900 main 728 728 O___________O_ jtwc_sh SH031998 -10.7000 175.900 25 -1 -10.7000 175.900 TC 25 4 273
1997297S11177 1998 100 SP MM NOT_NAMED 1997-10-25 03:00:00 TS -10.6850 175.700 main 736 736 P___________P_ SH031998 -10.6850 175.700 25 -1 -10.6850 175.700 TC 25 4 270
1997297S11177 1998 100 SP MM NOT_NAMED 1997-10-25 06:00:00 TS -10.7000 175.500 main 745 745 O___________O_ jtwc_sh SH031998 -10.7000 175.500 25 -1 -10.7000 175.500 TC 25 4 260
1997297S11177 1998 100 SP MM NOT_NAMED 1997-10-25 09:00:00 TS -10.7550 175.307 main 745 745 P___________P_ SH031998 -10.7550 175.307 25 -1 -10.7550 175.307 TC 25 4 243
1997297S11177 1998 100 SP MM NOT_NAMED 1997-10-25 12:00:00 TS -10.9000 175.100 main 745 737 O___________O_ jtwc_sh SH031998 -10.9000 175.100 25 -1 -10.9000 175.100 TC 25 6 228
1997297S11177 1998 100 SP MM NOT_NAMED 1997-10-25 15:00:00 TS -11.1475 174.857 main 737 718 P___________P_ SH031998 -11.1475 174.857 27 -1 -11.1475 174.857 TC 27 8 219
1997297S11177 1998 100 SP MM NOT_NAMED 1997-10-25 18:00:00 TS -11.5000 174.600 main 718 695 O___________O_ jtwc_sh SH031998 -11.5000 174.600 30 -1 -11.5000 174.600 TC 30 10 213
1997297S11177 1998 100 SP MM NOT_NAMED 1997-10-25 21:00:00 TS -11.9575 174.313 main 693 675 P___________P_ SH031998 -11.9575 174.313 30 -1 -11.9575 174.313 TC 30 10 209
1997297S11177 1998 100 SP MM NOT_NAMED 1997-10-26 00:00:00 TS -12.4000 174.100 main 675 655 O___________O_ jtwc_sh SH031998 -12.4000 174.100 30 -1 -12.4000 174.100 TC 30 8 199
1997297S11177 1998 100 SP MM NOT_NAMED 1997-10-26 03:00:00 TS -12.6949 174.047 main 655 631 P___________P_ SH031998 -12.6949 174.047 32 -1 -12.6949 174.047 TC 32 5 178
1997297S11177 1998 100 SP MM NOT_NAMED 1997-10-26 06:00:00 TS -12.9000 174.100 main 631 606 O___________O_ jtwc_sh SH031998 -12.9000 174.100 35 0 -12.9000 174.100 TC 35 4 161
1997297S11177 1998 100 SP MM NOT_NAMED 1997-10-26 09:00:00 TS -13.0650 174.185 main 606 591 P___________P_ SH031998 -13.0650 174.185 35 0 -13.0650 174.185 TC 35 4 147
1997297S11177 1998 100 SP MM NOT_NAMED 1997-10-26 12:00:00 TS -13.2000 174.300 main 591 566 O___________O_ jtwc_sh SH031998 -13.2000 174.300 35 0 -13.2000 174.300 TC 35 4 146
1997297S11177 1998 100 SP MM NOT_NAMED 1997-10-26 15:00:00 TS -13.3650 174.393 main 566 551 P___________P_ SH031998 -13.3650 174.393 35 0 -13.3650 174.393 TC 35 4 147
1997297S11177 1998 100 SP MM NOT_NAMED 1997-10-26 18:00:00 TS -13.5000 174.500 main 551 535 O___________O_ jtwc_sh SH031998 -13.5000 174.500 35 0 -13.5000 174.500 TC 35 3 132
1997297S11177 1998 100 SP MM NOT_NAMED 1997-10-26 21:00:00 TS -13.5800 174.635 main 535 523 P___________P_ SH031998 -13.5800 174.635 32 -1 -13.5800 174.635 TC 32 3 109
1997297S11177 1998 100 SP MM NOT_NAMED 1997-10-27 00:00:00 TS -13.6000 174.800 main 523 511 O___________O_ jtwc_sh SH031998 -13.6000 174.800 30 -1 -13.6000 174.800 TC 30 3 86
1997297S11177 1998 100 SP MM NOT_NAMED 1997-10-27 03:00:00 TS -13.5575 174.985 main 511 503 P___________P_ SH031998 -13.5575 174.985 30 -1 -13.5575 174.985 TC 30 4 76
1997297S11177 1998 100 SP MM NOT_NAMED 1997-10-27 06:00:00 TS -13.5000 175.200 main 503 489 O___________O_ jtwc_sh SH031998 -13.5000 175.200 30 -1 -13.5000 175.200 TC 30 5 79
1997297S11177 1998 100 SP MM NOT_NAMED 1997-10-27 09:00:00 TS -13.4700 175.443 main 489 467 P___________P_ SH031998 -13.4700 175.443 30 -1 -13.4700 175.443 TC 30 5 90
1997297S11177 1998 100 SP MM NOT_NAMED 1997-10-27 12:00:00 TS -13.5000 175.700 main 467 438 O___________O_ jtwc_sh SH031998 -13.5000 175.700 30 -1 -13.5000 175.700 TC 30 5 106
1997297S11177 1998 100 SP MM NOT_NAMED 1997-10-27 15:00:00 TS -13.6200 175.965 main 438 407 P___________P_ SH031998 -13.6200 175.965 30 -1 -13.6200 175.965 TC 30 6 122
1997297S11177 1998 100 SP MM NOT_NAMED 1997-10-27 18:00:00 TS -13.8000 176.200 main 407 376 O___________O_ jtwc_sh SH031998 -13.8000 176.200 30 -1 -13.8000 176.200 TC 30 5 133
1997297S11177 1998 100 SP MM NOT_NAMED 1997-10-27 21:00:00 TS -13.9925 176.373 main 376 352 P___________P_ SH031998 -13.9925 176.373 27 -1 -13.9925 176.373 TC 27 5 144
1997297S11177 1998 100 SP MM NOT_NAMED 1997-10-28 00:00:00 TS -14.2000 176.500 main 352 328 O___________O_ jtwc_sh SH031998 -14.2000 176.500 25 -1 -14.2000 176.500 TC 25 5 152
1997297S11177 1998 100 SP MM NOT_NAMED 1997-10-28 03:00:00 TS -14.4025 176.605 main 328 304 P___________P_ SH031998 -14.4025 176.605 22 -1 -14.4025 176.605 TC 22 4 154
1997297S11177 1998 100 SP MM NOT_NAMED 1997-10-28 06:00:00 TS -14.6000 176.700 main 304 O___________O_ jtwc_sh SH031998 -14.6000 176.700 20 -1 -14.6000 176.700 TC 20 4 156

デジタル台風データ・検索

IBTrACS Databaseについて

本データベースは、米国NOAAが公開する1842年以降の世界の熱帯低気圧のベストトラックデータアーカイブInternational Best Track Archive for Climate Stewardship (IBTrACS)を、ウェブで閲覧しやすい形式に変換したものです。

最終更新日:2021-11-26